sensor_id;sensor_type;location;lat;lon;timestamp;P1;durP1;ratioP1;P2;durP2;ratioP2
11823;SDS011;5969;50.780;7.726;2023-04-01T00:01:25;2.30;;;1.00;;
11823;SDS011;5969;50.780;7.726;2023-04-01T00:03:52;3.67;;;1.15;;
11823;SDS011;5969;50.780;7.726;2023-04-01T00:06:19;3.72;;;1.30;;
11823;SDS011;5969;50.780;7.726;2023-04-01T00:08:46;4.35;;;0.98;;
11823;SDS011;5969;50.780;7.726;2023-04-01T00:11:13;2.67;;;1.00;;
11823;SDS011;5969;50.780;7.726;2023-04-01T00:13:42;4.32;;;1.08;;
11823;SDS011;5969;50.780;7.726;2023-04-01T00:16:09;2.08;;;1.20;;
11823;SDS011;5969;50.780;7.726;2023-04-01T00:18:36;4.63;;;1.30;;
11823;SDS011;5969;50.780;7.726;2023-04-01T00:21:04;4.78;;;1.48;;
11823;SDS011;5969;50.780;7.726;2023-04-01T00:23:31;3.88;;;1.33;;
11823;SDS011;5969;50.780;7.726;2023-04-01T00:25:58;3.72;;;1.23;;
11823;SDS011;5969;50.780;7.726;2023-04-01T00:28:25;4.72;;;1.40;;
11823;SDS011;5969;50.780;7.726;2023-04-01T00:30:54;3.10;;;1.33;;
11823;SDS011;5969;50.780;7.726;2023-04-01T00:33:21;3.80;;;1.10;;
11823;SDS011;5969;50.780;7.726;2023-04-01T00:35:48;5.00;;;1.27;;
11823;SDS011;5969;50.780;7.726;2023-04-01T00:38:15;4.90;;;1.30;;
11823;SDS011;5969;50.780;7.726;2023-04-01T00:40:44;3.13;;;1.13;;
11823;SDS011;5969;50.780;7.726;2023-04-01T00:43:13;5.03;;;1.40;;
11823;SDS011;5969;50.780;7.726;2023-04-01T00:45:43;4.68;;;1.20;;
11823;SDS011;5969;50.780;7.726;2023-04-01T00:48:13;4.68;;;1.30;;
11823;SDS011;5969;50.780;7.726;2023-04-01T00:50:44;4.43;;;1.05;;
11823;SDS011;5969;50.780;7.726;2023-04-01T00:53:14;3.63;;;1.48;;
11823;SDS011;5969;50.780;7.726;2023-04-01T00:55:44;2.85;;;1.10;;
11823;SDS011;5969;50.780;7.726;2023-04-01T00:58:16;2.92;;;1.25;;
11823;SDS011;5969;50.780;7.726;2023-04-01T03:54:13;0.85;;;0.70;;
11823;SDS011;5969;50.780;7.726;2023-04-01T03:57:34;2.10;;;0.75;;
11823;SDS011;5969;50.780;7.726;2023-04-01T03:59:52;2.70;;;1.10;;
11823;SDS011;5969;50.780;7.726;2023-04-01T04:02:41;3.47;;;0.90;;
11823;SDS011;5969;50.780;7.726;2023-04-01T04:05:24;2.17;;;0.95;;
11823;SDS011;5969;50.780;7.726;2023-04-01T04:08:10;2.88;;;1.35;;
11823;SDS011;5969;50.780;7.726;2023-04-01T04:10:58;2.40;;;0.98;;
11823;SDS011;5969;50.780;7.726;2023-04-01T04:13:35;1.00;;;0.68;;
11823;SDS011;5969;50.780;7.726;2023-04-01T04:16:17;3.60;;;1.40;;
11823;SDS011;5969;50.780;7.726;2023-04-01T04:19:08;2.80;;;1.10;;
11823;SDS011;5969;50.780;7.726;2023-04-01T04:21:43;1.45;;;0.80;;
11823;SDS011;5969;50.780;7.726;2023-04-01T04:24:28;2.33;;;0.95;;
11823;SDS011;5969;50.780;7.726;2023-04-01T04:27:15;1.70;;;0.80;;
11823;SDS011;5969;50.780;7.726;2023-04-01T04:29:59;2.78;;;1.10;;
11823;SDS011;5969;50.780;7.726;2023-04-01T04:32:49;2.80;;;1.10;;
11823;SDS011;5969;50.780;7.726;2023-04-01T04:35:45;2.53;;;0.93;;
11823;SDS011;5969;50.780;7.726;2023-04-01T04:38:44;2.35;;;0.85;;
11823;SDS011;5969;50.780;7.726;2023-04-01T04:41:16;2.17;;;1.10;;
11823;SDS011;5969;50.780;7.726;2023-04-01T04:43:53;2.47;;;0.98;;
11823;SDS011;5969;50.780;7.726;2023-04-01T04:46:31;1.63;;;0.75;;
11823;SDS011;5969;50.780;7.726;2023-04-01T04:49:06;2.35;;;0.88;;
11823;SDS011;5969;50.780;7.726;2023-04-01T04:51:40;1.75;;;0.85;;
11823;SDS011;5969;50.780;7.726;2023-04-01T04:54:25;1.58;;;0.90;;
11823;SDS011;5969;50.780;7.726;2023-04-01T04:56:56;1.42;;;0.77;;
11823;SDS011;5969;50.780;7.726;2023-04-01T04:59:28;2.50;;;0.75;;
11823;SDS011;5969;50.780;7.726;2023-04-01T05:01:58;1.35;;;0.60;;
11823;SDS011;5969;50.780;7.726;2023-04-01T05:04:39;3.42;;;0.77;;
11823;SDS011;5969;50.780;7.726;2023-04-01T05:07:21;1.25;;;0.70;;
11823;SDS011;5969;50.780;7.726;2023-04-01T05:09:53;1.77;;;0.90;;
11823;SDS011;5969;50.780;7.726;2023-04-01T05:12:39;0.82;;;0.50;;
11823;SDS011;5969;50.780;7.726;2023-04-01T05:15:21;2.85;;;0.80;;
11823;SDS011;5969;50.780;7.726;2023-04-01T05:18:02;3.28;;;1.00;;
11823;SDS011;5969;50.780;7.726;2023-04-01T05:20:57;1.10;;;0.85;;
11823;SDS011;5969;50.780;7.726;2023-04-01T05:23:39;0.70;;;0.50;;
11823;SDS011;5969;50.780;7.726;2023-04-01T05:26:14;2.25;;;0.77;;
11823;SDS011;5969;50.780;7.726;2023-04-01T05:28:45;1.88;;;0.63;;
11823;SDS011;5969;50.780;7.726;2023-04-01T05:31:30;3.42;;;0.90;;
11823;SDS011;5969;50.780;7.726;2023-04-01T05:34:11;1.88;;;0.70;;
11823;SDS011;5969;50.780;7.726;2023-04-01T05:36:45;1.02;;;0.70;;
11823;SDS011;5969;50.780;7.726;2023-04-01T05:39:19;2.00;;;0.98;;
11823;SDS011;5969;50.780;7.726;2023-04-01T05:41:49;2.05;;;0.50;;
11823;SDS011;5969;50.780;7.726;2023-04-01T05:44:46;1.20;;;0.70;;
11823;SDS011;5969;50.780;7.726;2023-04-01T05:47:30;2.45;;;0.70;;
11823;SDS011;5969;50.780;7.726;2023-04-01T05:50:17;1.38;;;0.60;;
11823;SDS011;5969;50.780;7.726;2023-04-01T05:53:00;2.95;;;0.70;;
11823;SDS011;5969;50.780;7.726;2023-04-01T05:55:37;1.27;;;0.70;;
11823;SDS011;5969;50.780;7.726;2023-04-01T05:58:11;1.75;;;0.88;;
11823;SDS011;5969;50.780;7.726;2023-04-01T06:00:43;1.15;;;0.70;;
11823;SDS011;5969;50.780;7.726;2023-04-01T06:03:20;3.47;;;0.85;;
11823;SDS011;5969;50.780;7.726;2023-04-01T06:09:31;2.35;;;0.80;;
11823;SDS011;5969;50.780;7.726;2023-04-01T06:12:23;3.90;;;0.77;;
11823;SDS011;5969;50.780;7.726;2023-04-01T06:15:33;1.80;;;0.70;;
11823;SDS011;5969;50.780;7.726;2023-04-01T06:18:29;2.67;;;0.80;;
11823;SDS011;5969;50.780;7.726;2023-04-01T06:21:30;2.53;;;0.80;;
11823;SDS011;5969;50.780;7.726;2023-04-01T06:24:34;1.45;;;0.60;;
11823;SDS011;5969;50.780;7.726;2023-04-01T06:27:38;1.75;;;0.80;;
11823;SDS011;5969;50.780;7.726;2023-04-01T06:30:41;1.60;;;1.30;;
11823;SDS011;5969;50.780;7.726;2023-04-01T06:33:24;1.38;;;0.60;;
11823;SDS011;5969;50.780;7.726;2023-04-01T06:36:25;4.28;;;0.80;;
11823;SDS011;5969;50.780;7.726;2023-04-01T06:39:20;2.45;;;0.73;;
11823;SDS011;5969;50.780;7.726;2023-04-01T06:45:32;2.88;;;0.70;;
11823;SDS011;5969;50.780;7.726;2023-04-01T06:48:23;1.73;;;0.65;;
11823;SDS011;5969;50.780;7.726;2023-04-01T06:51:30;0.90;;;0.52;;
11823;SDS011;5969;50.780;7.726;2023-04-01T06:54:16;1.90;;;0.68;;
11823;SDS011;5969;50.780;7.726;2023-04-01T06:56:49;2.50;;;0.82;;
11823;SDS011;5969;50.780;7.726;2023-04-01T06:59:24;2.78;;;0.85;;
11823;SDS011;5969;50.780;7.726;2023-04-01T07:01:54;1.40;;;0.65;;
11823;SDS011;5969;50.780;7.726;2023-04-01T07:04:27;4.05;;;0.95;;
11823;SDS011;5969;50.780;7.726;2023-04-01T07:06:58;0.88;;;0.70;;
11823;SDS011;5969;50.780;7.726;2023-04-01T07:09:28;1.73;;;0.57;;
11823;SDS011;5969;50.780;7.726;2023-04-01T07:17:12;1.77;;;0.60;;
11823;SDS011;5969;50.780;7.726;2023-04-01T07:19:56;3.33;;;0.60;;
11823;SDS011;5969;50.780;7.726;2023-04-01T07:22:29;1.25;;;0.60;;
11823;SDS011;5969;50.780;7.726;2023-04-01T07:25:02;1.98;;;0.82;;
11823;SDS011;5969;50.780;7.726;2023-04-01T07:27:37;0.50;;;0.30;;
11823;SDS011;5969;50.780;7.726;2023-04-01T07:30:12;2.85;;;0.73;;
11823;SDS011;5969;50.780;7.726;2023-04-01T07:32:42;1.60;;;0.63;;
11823;SDS011;5969;50.780;7.726;2023-04-01T07:38:40;1.95;;;0.77;;
11823;SDS011;5969;50.780;7.726;2023-04-01T07:41:41;0.93;;;0.52;;
11823;SDS011;5969;50.780;7.726;2023-04-01T07:44:32;1.63;;;0.75;;
11823;SDS011;5969;50.780;7.726;2023-04-01T07:47:15;1.50;;;0.68;;
11823;SDS011;5969;50.780;7.726;2023-04-01T07:50:03;1.17;;;0.60;;
11823;SDS011;5969;50.780;7.726;2023-04-01T07:52:42;0.57;;;0.57;;
11823;SDS011;5969;50.780;7.726;2023-04-01T07:55:20;2.70;;;0.70;;
11823;SDS011;5969;50.780;7.726;2023-04-01T07:57:55;1.90;;;0.65;;
11823;SDS011;5969;50.780;7.726;2023-04-01T08:00:33;2.08;;;0.85;;
11823;SDS011;5969;50.780;7.726;2023-04-01T08:03:17;2.72;;;0.73;;
11823;SDS011;5969;50.780;7.726;2023-04-01T08:05:57;3.15;;;0.65;;
11823;SDS011;5969;50.780;7.726;2023-04-01T08:08:35;0.95;;;0.80;;
11823;SDS011;5969;50.780;7.726;2023-04-01T08:11:29;0.80;;;0.63;;
11823;SDS011;5969;50.780;7.726;2023-04-01T08:14:14;2.03;;;0.80;;
11823;SDS011;5969;50.780;7.726;2023-04-01T08:16:49;2.30;;;0.70;;
11823;SDS011;5969;50.780;7.726;2023-04-01T08:19:29;0.90;;;0.68;;
11823;SDS011;5969;50.780;7.726;2023-04-01T08:22:18;0.60;;;0.60;;
11823;SDS011;5969;50.780;7.726;2023-04-01T08:25:01;2.03;;;0.88;;
11823;SDS011;5969;50.780;7.726;2023-04-01T08:27:34;1.30;;;0.60;;
11823;SDS011;5969;50.780;7.726;2023-04-01T08:30:18;1.05;;;0.80;;
11823;SDS011;5969;50.780;7.726;2023-04-01T08:32:58;1.35;;;0.77;;
11823;SDS011;5969;50.780;7.726;2023-04-01T08:35:34;1.50;;;0.80;;
11823;SDS011;5969;50.780;7.726;2023-04-01T08:38:05;1.88;;;0.90;;
11823;SDS011;5969;50.780;7.726;2023-04-01T08:46:56;1.70;;;0.65;;
11823;SDS011;5969;50.780;7.726;2023-04-01T08:49:50;1.33;;;0.80;;
11823;SDS011;5969;50.780;7.726;2023-04-01T08:52:40;0.85;;;0.77;;
11823;SDS011;5969;50.780;7.726;2023-04-01T08:55:24;0.80;;;0.70;;
11823;SDS011;5969;50.780;7.726;2023-04-01T09:01:10;0.77;;;0.77;;
11823;SDS011;5969;50.780;7.726;2023-04-01T09:03:56;0.60;;;0.60;;
11823;SDS011;5969;50.780;7.726;2023-04-01T09:13:40;0.75;;;0.70;;
11823;SDS011;5969;50.780;7.726;2023-04-01T09:25:52;1.48;;;1.00;;
11823;SDS011;5969;50.780;7.726;2023-04-01T09:28:26;1.08;;;0.98;;
11823;SDS011;5969;50.780;7.726;2023-04-01T09:31:08;1.17;;;0.70;;
11823;SDS011;5969;50.780;7.726;2023-04-01T09:33:58;4.60;;;0.90;;
11823;SDS011;5969;50.780;7.726;2023-04-01T09:36:38;1.45;;;0.80;;
11823;SDS011;5969;50.780;7.726;2023-04-01T09:39:16;0.60;;;0.60;;
11823;SDS011;5969;50.780;7.726;2023-04-01T09:41:54;2.35;;;0.63;;
11823;SDS011;5969;50.780;7.726;2023-04-01T09:44:32;0.80;;;0.70;;
11823;SDS011;5969;50.780;7.726;2023-04-01T09:47:09;0.70;;;0.70;;
11823;SDS011;5969;50.780;7.726;2023-04-01T09:49:55;1.10;;;0.60;;
11823;SDS011;5969;50.780;7.726;2023-04-01T09:52:41;1.30;;;0.80;;
11823;SDS011;5969;50.780;7.726;2023-04-01T09:55:19;1.15;;;1.05;;
11823;SDS011;5969;50.780;7.726;2023-04-01T10:01:34;0.75;;;0.70;;
11823;SDS011;5969;50.780;7.726;2023-04-01T10:04:17;0.93;;;0.80;;
11823;SDS011;5969;50.780;7.726;2023-04-01T10:07:14;1.30;;;1.08;;
11823;SDS011;5969;50.780;7.726;2023-04-01T10:10:19;1.00;;;0.80;;
11823;SDS011;5969;50.780;7.726;2023-04-01T10:13:18;1.40;;;1.00;;
11823;SDS011;5969;50.780;7.726;2023-04-01T10:16:23;0.80;;;0.80;;
11823;SDS011;5969;50.780;7.726;2023-04-01T10:19:08;1.20;;;0.88;;
11823;SDS011;5969;50.780;7.726;2023-04-01T10:25:03;0.88;;;0.88;;
11823;SDS011;5969;50.780;7.726;2023-04-01T10:27:49;0.70;;;0.70;;
11823;SDS011;5969;50.780;7.726;2023-04-01T10:30:31;0.85;;;0.73;;
11823;SDS011;5969;50.780;7.726;2023-04-01T10:33:37;0.55;;;0.55;;
11823;SDS011;5969;50.780;7.726;2023-04-01T10:36:49;0.80;;;0.80;;
11823;SDS011;5969;50.780;7.726;2023-04-01T10:42:32;0.70;;;0.68;;
11823;SDS011;5969;50.780;7.726;2023-04-01T10:45:19;0.88;;;0.77;;
11823;SDS011;5969;50.780;7.726;2023-04-01T10:48:23;1.73;;;0.68;;
11823;SDS011;5969;50.780;7.726;2023-04-01T10:51:15;1.00;;;0.90;;
11823;SDS011;5969;50.780;7.726;2023-04-01T10:53:56;1.30;;;0.80;;
11823;SDS011;5969;50.780;7.726;2023-04-01T10:56:50;1.30;;;0.70;;
11823;SDS011;5969;50.780;7.726;2023-04-01T10:59:31;1.42;;;0.60;;
11823;SDS011;5969;50.780;7.726;2023-04-01T11:05:51;0.70;;;0.70;;
11823;SDS011;5969;50.780;7.726;2023-04-01T11:09:02;1.77;;;0.80;;
11823;SDS011;5969;50.780;7.726;2023-04-01T11:18:17;1.48;;;1.10;;
11823;SDS011;5969;50.780;7.726;2023-04-01T11:21:15;1.85;;;1.00;;
11823;SDS011;5969;50.780;7.726;2023-04-01T11:27:23;0.90;;;0.90;;
11823;SDS011;5969;50.780;7.726;2023-04-01T11:30:12;1.00;;;0.90;;
11823;SDS011;5969;50.780;7.726;2023-04-01T11:32:57;1.08;;;0.98;;
11823;SDS011;5969;50.780;7.726;2023-04-01T11:35:34;1.20;;;1.10;;
11823;SDS011;5969;50.780;7.726;2023-04-01T11:38:26;1.45;;;1.15;;
11823;SDS011;5969;50.780;7.726;2023-04-01T11:41:06;1.60;;;1.38;;
11823;SDS011;5969;50.780;7.726;2023-04-01T11:43:46;1.10;;;0.90;;
11823;SDS011;5969;50.780;7.726;2023-04-01T11:46:23;1.10;;;1.00;;
11823;SDS011;5969;50.780;7.726;2023-04-01T11:48:58;1.40;;;1.30;;
11823;SDS011;5969;50.780;7.726;2023-04-01T11:51:51;1.75;;;1.20;;
11823;SDS011;5969;50.780;7.726;2023-04-01T11:54:36;1.38;;;1.27;;
11823;SDS011;5969;50.780;7.726;2023-04-01T11:57:21;1.33;;;1.23;;
11823;SDS011;5969;50.780;7.726;2023-04-01T12:00:15;1.02;;;0.98;;
11823;SDS011;5969;50.780;7.726;2023-04-01T12:03:06;1.58;;;1.48;;
11823;SDS011;5969;50.780;7.726;2023-04-01T12:05:47;1.38;;;1.27;;
11823;SDS011;5969;50.780;7.726;2023-04-01T12:08:23;1.20;;;1.10;;
11823;SDS011;5969;50.780;7.726;2023-04-01T12:10:59;1.42;;;1.23;;
11823;SDS011;5969;50.780;7.726;2023-04-01T12:13:35;1.60;;;1.20;;
11823;SDS011;5969;50.780;7.726;2023-04-01T12:19:08;1.45;;;1.35;;
11823;SDS011;5969;50.780;7.726;2023-04-01T12:21:42;1.50;;;1.40;;
11823;SDS011;5969;50.780;7.726;2023-04-01T12:27:19;1.30;;;1.20;;
11823;SDS011;5969;50.780;7.726;2023-04-01T12:30:05;1.40;;;1.30;;
11823;SDS011;5969;50.780;7.726;2023-04-01T12:32:57;1.48;;;1.30;;
11823;SDS011;5969;50.780;7.726;2023-04-01T12:35:39;1.65;;;1.40;;
11823;SDS011;5969;50.780;7.726;2023-04-01T12:38:21;1.38;;;1.25;;
11823;SDS011;5969;50.780;7.726;2023-04-01T12:41:02;1.00;;;0.90;;
11823;SDS011;5969;50.780;7.726;2023-04-01T12:43:49;0.70;;;0.70;;
11823;SDS011;5969;50.780;7.726;2023-04-01T12:46:29;1.35;;;1.00;;
11823;SDS011;5969;50.780;7.726;2023-04-01T12:49:05;2.35;;;1.00;;
11823;SDS011;5969;50.780;7.726;2023-04-01T12:51:57;1.10;;;1.00;;
11823;SDS011;5969;50.780;7.726;2023-04-01T12:54:45;1.10;;;1.00;;
11823;SDS011;5969;50.780;7.726;2023-04-01T12:57:33;1.00;;;1.00;;
11823;SDS011;5969;50.780;7.726;2023-04-01T13:00:27;2.10;;;1.55;;
11823;SDS011;5969;50.780;7.726;2023-04-01T13:03:11;1.20;;;1.10;;
11823;SDS011;5969;50.780;7.726;2023-04-01T13:08:48;1.10;;;1.00;;
11823;SDS011;5969;50.780;7.726;2023-04-01T13:11:22;1.30;;;1.20;;
11823;SDS011;5969;50.780;7.726;2023-04-01T13:17:16;1.00;;;1.00;;
11823;SDS011;5969;50.780;7.726;2023-04-01T13:19:51;2.30;;;1.00;;
11823;SDS011;5969;50.780;7.726;2023-04-01T13:22:24;2.67;;;1.30;;
11823;SDS011;5969;50.780;7.726;2023-04-01T13:24:57;0.80;;;0.80;;
11823;SDS011;5969;50.780;7.726;2023-04-01T13:27:33;0.70;;;0.70;;
11823;SDS011;5969;50.780;7.726;2023-04-01T13:30:07;2.75;;;1.05;;
11823;SDS011;5969;50.780;7.726;2023-04-01T13:32:50;1.20;;;0.98;;
11823;SDS011;5969;50.780;7.726;2023-04-01T13:35:28;0.93;;;0.90;;
11823;SDS011;5969;50.780;7.726;2023-04-01T13:38:16;0.90;;;0.90;;
11823;SDS011;5969;50.780;7.726;2023-04-01T13:40:59;0.80;;;0.80;;
11823;SDS011;5969;50.780;7.726;2023-04-01T13:43:34;1.15;;;0.95;;
11823;SDS011;5969;50.780;7.726;2023-04-01T13:46:16;1.58;;;0.90;;
11823;SDS011;5969;50.780;7.726;2023-04-01T13:49:17;1.20;;;1.00;;
11823;SDS011;5969;50.780;7.726;2023-04-01T13:52:13;1.45;;;0.90;;
11823;SDS011;5969;50.780;7.726;2023-04-01T13:55:06;0.73;;;0.73;;
11823;SDS011;5969;50.780;7.726;2023-04-01T13:57:52;1.58;;;0.98;;
11823;SDS011;5969;50.780;7.726;2023-04-01T14:00:39;0.90;;;0.90;;
11823;SDS011;5969;50.780;7.726;2023-04-01T14:03:21;1.00;;;0.90;;
11823;SDS011;5969;50.780;7.726;2023-04-01T14:06:02;1.20;;;1.10;;
11823;SDS011;5969;50.780;7.726;2023-04-01T14:08:55;0.98;;;0.70;;
11823;SDS011;5969;50.780;7.726;2023-04-01T14:11:36;1.00;;;0.90;;
11823;SDS011;5969;50.780;7.726;2023-04-01T14:14:13;0.80;;;0.80;;
11823;SDS011;5969;50.780;7.726;2023-04-01T14:16:54;0.82;;;0.82;;
11823;SDS011;5969;50.780;7.726;2023-04-01T14:19:44;0.93;;;0.70;;
11823;SDS011;5969;50.780;7.726;2023-04-01T14:22:29;1.10;;;0.80;;
11823;SDS011;5969;50.780;7.726;2023-04-01T14:25:23;0.95;;;0.85;;
11823;SDS011;5969;50.780;7.726;2023-04-01T14:28:08;1.25;;;1.02;;
11823;SDS011;5969;50.780;7.726;2023-04-01T14:30:48;0.80;;;0.80;;
11823;SDS011;5969;50.780;7.726;2023-04-01T14:33:28;0.75;;;0.75;;
11823;SDS011;5969;50.780;7.726;2023-04-01T14:36:09;0.80;;;0.80;;
11823;SDS011;5969;50.780;7.726;2023-04-01T14:38:54;1.00;;;0.95;;
11823;SDS011;5969;50.780;7.726;2023-04-01T14:41:38;1.10;;;1.00;;
11823;SDS011;5969;50.780;7.726;2023-04-01T14:47:21;1.10;;;1.00;;
11823;SDS011;5969;50.780;7.726;2023-04-01T14:49:56;2.65;;;1.60;;
11823;SDS011;5969;50.780;7.726;2023-04-01T14:52:31;1.30;;;1.20;;
11823;SDS011;5969;50.780;7.726;2023-04-01T14:55:00;2.08;;;1.30;;
11823;SDS011;5969;50.780;7.726;2023-04-01T14:57:30;1.35;;;1.20;;
11823;SDS011;5969;50.780;7.726;2023-04-01T15:00:00;1.42;;;1.20;;
11823;SDS011;5969;50.780;7.726;2023-04-01T15:02:46;3.17;;;1.30;;
11823;SDS011;5969;50.780;7.726;2023-04-01T15:05:25;1.45;;;1.10;;
11823;SDS011;5969;50.780;7.726;2023-04-01T15:08:01;1.55;;;1.40;;
11823;SDS011;5969;50.780;7.726;2023-04-01T15:13:53;1.40;;;1.30;;
11823;SDS011;5969;50.780;7.726;2023-04-01T15:16:39;1.35;;;1.25;;
11823;SDS011;5969;50.780;7.726;2023-04-01T15:19:14;1.73;;;1.50;;
11823;SDS011;5969;50.780;7.726;2023-04-01T15:21:59;1.20;;;1.10;;
11823;SDS011;5969;50.780;7.726;2023-04-01T15:25:00;1.50;;;1.35;;
11823;SDS011;5969;50.780;7.726;2023-04-01T15:27:37;1.40;;;1.30;;
11823;SDS011;5969;50.780;7.726;2023-04-01T15:30:15;2.05;;;1.65;;
11823;SDS011;5969;50.780;7.726;2023-04-01T15:32:52;1.92;;;1.73;;
11823;SDS011;5969;50.780;7.726;2023-04-01T15:35:39;1.73;;;1.63;;
11823;SDS011;5969;50.780;7.726;2023-04-01T15:38:18;1.67;;;1.58;;
11823;SDS011;5969;50.780;7.726;2023-04-01T15:40:58;2.53;;;1.90;;
11823;SDS011;5969;50.780;7.726;2023-04-01T15:43:36;2.50;;;1.65;;
11823;SDS011;5969;50.780;7.726;2023-04-01T15:49:09;1.20;;;1.10;;
11823;SDS011;5969;50.780;7.726;2023-04-01T15:51:48;2.17;;;1.52;;
11823;SDS011;5969;50.780;7.726;2023-04-01T15:57:24;1.20;;;1.10;;
11823;SDS011;5969;50.780;7.726;2023-04-01T16:00:03;2.30;;;1.40;;
11823;SDS011;5969;50.780;7.726;2023-04-01T16:02:40;1.00;;;0.95;;
11823;SDS011;5969;50.780;7.726;2023-04-01T16:05:20;1.52;;;1.25;;
11823;SDS011;5969;50.780;7.726;2023-04-01T16:07:56;1.85;;;1.30;;
11823;SDS011;5969;50.780;7.726;2023-04-01T16:10:44;2.78;;;1.65;;
11823;SDS011;5969;50.780;7.726;2023-04-01T16:13:45;1.40;;;1.30;;
11823;SDS011;5969;50.780;7.726;2023-04-01T16:16:23;1.90;;;1.40;;
11823;SDS011;5969;50.780;7.726;2023-04-01T16:19:09;2.53;;;1.50;;
11823;SDS011;5969;50.780;7.726;2023-04-01T16:21:46;1.60;;;1.50;;
11823;SDS011;5969;50.780;7.726;2023-04-01T16:24:17;1.63;;;1.52;;
11823;SDS011;5969;50.780;7.726;2023-04-01T16:26:51;1.92;;;1.70;;
11823;SDS011;5969;50.780;7.726;2023-04-01T16:29:27;1.60;;;1.50;;
11823;SDS011;5969;50.780;7.726;2023-04-01T16:32:12;2.30;;;1.88;;
11823;SDS011;5969;50.780;7.726;2023-04-01T16:34:54;2.53;;;2.30;;
11823;SDS011;5969;50.780;7.726;2023-04-01T16:37:29;2.25;;;2.03;;
11823;SDS011;5969;50.780;7.726;2023-04-01T16:40:02;2.58;;;2.30;;
11823;SDS011;5969;50.780;7.726;2023-04-01T16:42:43;2.45;;;2.08;;
11823;SDS011;5969;50.780;7.726;2023-04-01T16:45:17;2.20;;;2.00;;
11823;SDS011;5969;50.780;7.726;2023-04-01T16:47:52;1.77;;;1.67;;
11823;SDS011;5969;50.780;7.726;2023-04-01T16:50:24;2.30;;;2.08;;
11823;SDS011;5969;50.780;7.726;2023-04-01T16:52:57;2.22;;;2.03;;
11823;SDS011;5969;50.780;7.726;2023-04-01T16:55:34;2.28;;;2.00;;
11823;SDS011;5969;50.780;7.726;2023-04-01T16:58:07;1.80;;;1.70;;
11823;SDS011;5969;50.780;7.726;2023-04-01T17:00:37;2.10;;;1.85;;
11823;SDS011;5969;50.780;7.726;2023-04-01T17:03:09;1.73;;;1.63;;
11823;SDS011;5969;50.780;7.726;2023-04-01T17:05:48;1.90;;;1.80;;
11823;SDS011;5969;50.780;7.726;2023-04-01T17:08:24;2.28;;;2.00;;
11823;SDS011;5969;50.780;7.726;2023-04-01T17:11:08;2.40;;;2.20;;
11823;SDS011;5969;50.780;7.726;2023-04-01T17:13:45;2.28;;;2.08;;
11823;SDS011;5969;50.780;7.726;2023-04-01T17:16:24;3.55;;;2.45;;
11823;SDS011;5969;50.780;7.726;2023-04-01T17:19:08;2.95;;;2.70;;
11823;SDS011;5969;50.780;7.726;2023-04-01T17:21:48;2.03;;;1.85;;
11823;SDS011;5969;50.780;7.726;2023-04-01T17:24:29;2.53;;;2.33;;
11823;SDS011;5969;50.780;7.726;2023-04-01T17:27:06;2.30;;;2.10;;
11823;SDS011;5969;50.780;7.726;2023-04-01T17:29:56;2.10;;;1.90;;
11823;SDS011;5969;50.780;7.726;2023-04-01T17:32:47;2.75;;;2.35;;
11823;SDS011;5969;50.780;7.726;2023-04-01T17:35:22;2.88;;;2.67;;
11823;SDS011;5969;50.780;7.726;2023-04-01T17:37:59;2.92;;;2.47;;
11823;SDS011;5969;50.780;7.726;2023-04-01T17:40:41;2.75;;;2.55;;
11823;SDS011;5969;50.780;7.726;2023-04-01T17:43:22;2.80;;;2.60;;
11823;SDS011;5969;50.780;7.726;2023-04-01T17:46:00;2.90;;;2.70;;
11823;SDS011;5969;50.780;7.726;2023-04-01T17:48:35;3.20;;;2.90;;
11823;SDS011;5969;50.780;7.726;2023-04-01T17:51:15;3.67;;;3.17;;
11823;SDS011;5969;50.780;7.726;2023-04-01T17:53:51;4.35;;;3.38;;
11823;SDS011;5969;50.780;7.726;2023-04-01T17:56:30;3.63;;;3.33;;
11823;SDS011;5969;50.780;7.726;2023-04-01T17:59:07;3.33;;;3.03;;
11823;SDS011;5969;50.780;7.726;2023-04-01T18:01:46;3.17;;;2.88;;
11823;SDS011;5969;50.780;7.726;2023-04-01T18:07:41;2.60;;;2.40;;
11823;SDS011;5969;50.780;7.726;2023-04-01T18:10:27;2.78;;;2.58;;
11823;SDS011;5969;50.780;7.726;2023-04-01T18:13:11;2.40;;;2.20;;
11823;SDS011;5969;50.780;7.726;2023-04-01T18:15:49;2.53;;;2.33;;
11823;SDS011;5969;50.780;7.726;2023-04-01T18:18:40;2.03;;;1.90;;
11823;SDS011;5969;50.780;7.726;2023-04-01T18:21:16;2.42;;;2.22;;
11823;SDS011;5969;50.780;7.726;2023-04-01T18:23:50;2.90;;;2.60;;
11823;SDS011;5969;50.780;7.726;2023-04-01T18:26:23;2.75;;;2.55;;
11823;SDS011;5969;50.780;7.726;2023-04-01T18:28:56;2.58;;;2.38;;
11823;SDS011;5969;50.780;7.726;2023-04-01T18:31:26;2.85;;;2.65;;
11823;SDS011;5969;50.780;7.726;2023-04-01T18:34:02;3.35;;;2.70;;
11823;SDS011;5969;50.780;7.726;2023-04-01T18:36:36;3.10;;;2.90;;
11823;SDS011;5969;50.780;7.726;2023-04-01T18:39:10;3.22;;;2.92;;
11823;SDS011;5969;50.780;7.726;2023-04-01T18:41:44;3.30;;;3.00;;
11823;SDS011;5969;50.780;7.726;2023-04-01T18:44:25;3.58;;;3.20;;
11823;SDS011;5969;50.780;7.726;2023-04-01T18:47:00;3.50;;;3.20;;
11823;SDS011;5969;50.780;7.726;2023-04-01T18:49:34;3.03;;;2.83;;
11823;SDS011;5969;50.780;7.726;2023-04-01T18:52:10;3.13;;;2.75;;
11823;SDS011;5969;50.780;7.726;2023-04-01T18:54:43;2.67;;;2.47;;
11823;SDS011;5969;50.780;7.726;2023-04-01T18:57:17;2.70;;;2.50;;
11823;SDS011;5969;50.780;7.726;2023-04-01T18:59:46;2.97;;;2.50;;
11823;SDS011;5969;50.780;7.726;2023-04-01T19:02:20;3.80;;;2.78;;
11823;SDS011;5969;50.780;7.726;2023-04-01T19:04:56;4.10;;;2.47;;
11823;SDS011;5969;50.780;7.726;2023-04-01T19:07:41;2.80;;;2.60;;
11823;SDS011;5969;50.780;7.726;2023-04-01T19:10:15;2.80;;;2.60;;
11823;SDS011;5969;50.780;7.726;2023-04-01T19:12:49;3.05;;;2.85;;
11823;SDS011;5969;50.780;7.726;2023-04-01T19:15:31;2.70;;;2.50;;
11823;SDS011;5969;50.780;7.726;2023-04-01T19:18:20;2.60;;;2.40;;
11823;SDS011;5969;50.780;7.726;2023-04-01T19:21:06;3.13;;;2.90;;
11823;SDS011;5969;50.780;7.726;2023-04-01T19:23:53;3.10;;;2.90;;
11823;SDS011;5969;50.780;7.726;2023-04-01T19:26:42;3.15;;;2.88;;
11823;SDS011;5969;50.780;7.726;2023-04-01T19:29:20;3.40;;;3.10;;
11823;SDS011;5969;50.780;7.726;2023-04-01T19:31:58;3.38;;;3.08;;
11823;SDS011;5969;50.780;7.726;2023-04-01T19:34:37;3.38;;;3.17;;
11823;SDS011;5969;50.780;7.726;2023-04-01T19:37:11;3.40;;;3.10;;
11823;SDS011;5969;50.780;7.726;2023-04-01T19:39:51;3.65;;;3.35;;
11823;SDS011;5969;50.780;7.726;2023-04-01T19:42:28;3.55;;;3.25;;
11823;SDS011;5969;50.780;7.726;2023-04-01T19:45:06;3.42;;;3.13;;
11823;SDS011;5969;50.780;7.726;2023-04-01T19:47:49;3.63;;;3.33;;
11823;SDS011;5969;50.780;7.726;2023-04-01T19:50:27;4.25;;;3.85;;
11823;SDS011;5969;50.780;7.726;2023-04-01T19:53:01;3.80;;;3.15;;
11823;SDS011;5969;50.780;7.726;2023-04-01T19:55:35;3.22;;;2.90;;
11823;SDS011;5969;50.780;7.726;2023-04-01T19:58:10;2.90;;;2.70;;
11823;SDS011;5969;50.780;7.726;2023-04-01T20:00:44;3.10;;;2.90;;
11823;SDS011;5969;50.780;7.726;2023-04-01T20:03:20;3.78;;;3.47;;
11823;SDS011;5969;50.780;7.726;2023-04-01T20:05:59;3.67;;;3.38;;
11823;SDS011;5969;50.780;7.726;2023-04-01T20:08:36;3.10;;;2.90;;
11823;SDS011;5969;50.780;7.726;2023-04-01T20:11:11;4.88;;;3.45;;
11823;SDS011;5969;50.780;7.726;2023-04-01T20:13:48;3.22;;;3.00;;
11823;SDS011;5969;50.780;7.726;2023-04-01T20:16:23;3.17;;;2.88;;
11823;SDS011;5969;50.780;7.726;2023-04-01T20:19:14;4.20;;;3.28;;
11823;SDS011;5969;50.780;7.726;2023-04-01T20:21:52;3.40;;;3.10;;
11823;SDS011;5969;50.780;7.726;2023-04-01T20:24:26;5.05;;;3.55;;
11823;SDS011;5969;50.780;7.726;2023-04-01T20:26:59;3.47;;;2.70;;
11823;SDS011;5969;50.780;7.726;2023-04-01T20:29:47;3.38;;;3.08;;
11823;SDS011;5969;50.780;7.726;2023-04-01T20:32:30;4.22;;;2.97;;
11823;SDS011;5969;50.780;7.726;2023-04-01T20:35:19;3.72;;;3.42;;
11823;SDS011;5969;50.780;7.726;2023-04-01T20:37:59;3.47;;;3.17;;
11823;SDS011;5969;50.780;7.726;2023-04-01T20:40:42;3.55;;;3.25;;
11823;SDS011;5969;50.780;7.726;2023-04-01T20:46:24;3.65;;;3.35;;
11823;SDS011;5969;50.780;7.726;2023-04-01T20:51:58;4.40;;;3.80;;
11823;SDS011;5969;50.780;7.726;2023-04-01T20:54:40;4.15;;;3.75;;